Time;durP1;ratioP1;P1;durP2;ratioP2;P2;SDS_P1;SDS_P2;PMS_P1;PMS_P2;Temp;Humidity;BMP_temperature;BMP_pressure;BME280_temperature;BME280_humidity;BME280_pressure;Samples;Min_cycle;Max_cycle;Signal;HPM_P1;HPM_P2
2023/10/07 00:12:19;;;;;;;3.47;2.00;;;;;;;13.69;58.72;100296.88;31213414;28;97062;-59
2023/10/07 00:27:26;;;;;;;5.47;2.40;;;;;;;13.69;58.95;100267.44;31211291;28;97981;-59
2023/10/07 00:42:28;;;;;;;7.10;2.20;;;;;;;13.87;59.08;100243.75;31208415;28;97211;-59
2023/10/07 00:57:37;;;;;;;6.67;3.30;;;;;;;14.11;58.47;100228.31;31209212;28;96886;-59
2023/10/07 01:12:39;;;;;;;5.67;2.60;;;;;;;14.32;57.82;100210.53;31209072;28;97382;-59
2023/10/07 01:27:49;;;;;;;8.53;2.67;;;;;;;14.44;57.28;100197.44;31208082;28;96913;-59
2023/10/07 01:42:49;;;;;;;7.27;2.47;;;;;;;14.55;57.29;100170.91;31205125;27;96991;-59
2023/10/07 01:57:51;;;;;;;4.45;2.20;;;;;;;14.62;57.34;100165.59;31206677;27;100324;-59
2023/10/07 02:12:53;;;;;;;8.47;2.37;;;;;;;14.59;57.84;100171.34;31223805;28;97161;-62
2023/10/07 02:27:54;;;;;;;4.60;2.73;;;;;;;14.58;57.98;100161.66;31224499;28;97168;-59
2023/10/07 02:42:54;;;;;;;5.68;2.35;;;;;;;14.54;58.10;100141.63;31221715;28;97553;-59
2023/10/07 02:57:55;;;;;;;5.03;2.30;;;;;;;14.43;58.56;100129.59;31220631;27;97243;-60
2023/10/07 03:12:57;;;;;;;5.43;2.33;;;;;;;14.40;59.38;100132.69;31218759;28;97196;-59
2023/10/07 03:27:57;;;;;;;5.40;2.10;;;;;;;14.33;59.40;100123.78;31215592;28;97505;-59
2023/10/07 03:43:00;;;;;;;5.13;1.95;;;;;;;14.28;60.38;100118.19;31212149;28;97127;-59
2023/10/07 03:58:00;;;;;;;4.37;2.00;;;;;;;14.34;60.82;100107.50;31212792;28;97208;-58
2023/10/07 04:13:01;;;;;;;4.72;2.20;;;;;;;14.42;61.01;100119.09;31209918;27;116713;-59
2023/10/07 04:28:06;;;;;;;5.03;1.90;;;;;;;14.51;61.13;100123.25;31209420;28;97118;-59
2023/10/07 04:58:12;;;;;;;6.07;2.30;;;;;;;14.70;61.53;100113.72;31207826;28;97162;-58
2023/10/07 05:13:13;;;;;;;6.00;2.83;;;;;;;14.90;61.51;100111.13;31203951;28;97134;-58
2023/10/07 05:28:17;;;;;;;6.17;2.33;;;;;;;15.14;61.23;100115.09;31219674;28;96753;-59
2023/10/07 05:43:17;;;;;;;4.20;2.27;;;;;;;15.27;61.60;100089.31;31222529;28;97586;-69
2023/10/07 05:58:20;;;;;;;7.20;1.98;;;;;;;14.98;61.35;100118.13;31224735;27;96868;-59
2023/10/07 06:13:20;;;;;;;10.43;2.23;;;;;;;14.88;61.91;100102.44;31220946;28;97786;-59
2023/10/07 06:43:29;;;;;;;4.70;2.00;;;;;;;16.34;61.66;100127.78;31213227;28;97250;-61
2023/10/07 06:58:30;;;;;;;4.47;2.10;;;;;;;17.36;59.90;100113.75;31217184;28;97308;-59
2023/10/07 07:13:34;;;;;;;5.45;1.48;;;;;;;18.64;58.57;100101.84;31216524;28;97343;-59
2023/10/07 07:28:35;;;;;;;3.40;1.33;;;;;;;19.81;54.70;100094.47;31216514;28;99051;-70
2023/10/07 07:43:37;;;;;;;4.88;1.38;;;;;;;20.73;52.60;100111.91;31213804;27;97589;-63
2023/10/07 07:58:41;;;;;;;5.13;1.80;;;;;;;21.76;49.63;100106.50;31211479;27;96821;-64
2023/10/07 08:13:41;;;;;;;4.27;1.57;;;;;;;21.48;48.67;100086.50;31211019;28;97565;-60
2023/10/07 08:44:15;;;;;;;3.60;1.60;;;;;;;21.94;48.32;100091.88;31206634;28;97314;-71
2023/10/07 08:59:17;;;;;;;3.53;1.27;;;;;;;20.78;50.06;100110.13;31225723;27;96760;-59
2023/10/07 09:14:18;;;;;;;2.33;1.23;;;;;;;20.24;51.54;100109.50;31247510;28;97222;-60
2023/10/07 09:29:24;;;;;;;4.07;1.27;;;;;;;20.05;52.44;100111.50;31245741;28;97495;-59
2023/10/07 09:44:28;;;;;;;3.20;1.40;;;;;;;20.72;52.10;100100.28;31242912;28;97176;-59
2023/10/07 09:59:43;;;;;;;2.83;1.47;;;;;;;20.48;51.89;100104.06;31244291;27;96802;-69
2023/10/07 10:30:05;;;;;;;3.53;1.57;;;;;;;19.72;53.52;100123.66;31220467;28;97273;-60
2023/10/07 10:45:10;;;;;;;3.73;1.40;;;;;;;19.44;53.51;100125.94;31220213;28;97372;-62
2023/10/07 11:00:23;;;;;;;4.47;1.70;;;;;;;19.16;54.29;100129.25;31217328;28;97139;-59
2023/10/07 11:15:29;;;;;;;4.87;2.53;;;;;;;19.09;54.69;100090.72;31217384;27;97244;-60
2023/10/07 11:30:30;;;;;;;3.33;1.20;;;;;;;19.41;54.97;100096.69;31213915;28;96725;-59
2023/10/07 11:45:32;;;;;;;6.53;2.17;;;;;;;19.17;55.33;100097.69;31212609;28;97371;-58
2023/10/07 12:00:34;;;;;;;4.13;1.30;;;;;;;18.83;56.25;100099.97;31211958;28;97420;-59
2023/10/07 12:15:34;;;;;;;2.50;1.37;;;;;;;19.07;56.83;100084.75;31209705;28;96741;-59
2023/10/07 12:30:35;;;;;;;4.78;1.52;;;;;;;19.30;57.06;100075.06;31208056;28;117065;-69
2023/10/07 12:45:36;;;;;;;4.38;1.85;;;;;;;19.09;57.18;100058.31;31207308;28;97527;-67
2023/10/07 13:00:37;;;;;;;5.97;2.10;;;;;;;18.65;58.13;100063.03;31204815;28;97432;-61
2023/10/07 13:15:37;;;;;;;3.28;1.67;;;;;;;18.42;58.74;100043.78;31204460;28;97324;-79
2023/10/07 13:30:39;;;;;;;3.03;1.50;;;;;;;18.23;59.35;100032.22;31203695;28;97277;-70
2023/10/07 13:45:39;;;;;;;3.93;1.67;;;;;;;18.21;59.65;100011.91;31213215;27;97629;-64
2023/10/07 14:00:47;;;;;;;4.97;2.53;;;;;;;18.16;60.15;99985.59;31224847;28;97423;-59
2023/10/07 14:15:51;;;;;;;3.87;1.60;;;;;;;18.13;60.53;99969.88;31223393;28;97027;-60
2023/10/07 14:30:52;;;;;;;5.17;2.57;;;;;;;17.98;61.13;99972.97;31221781;28;96854;-59
2023/10/07 14:45:53;;;;;;;8.17;2.80;;;;;;;17.68;62.03;99975.53;31217740;27;97096;-61
2023/10/07 15:00:54;;;;;;;6.10;3.43;;;;;;;17.25;64.96;99961.81;31217266;28;97257;-59
2023/10/07 15:15:54;;;;;;;5.03;1.50;;;;;;;17.67;65.87;99987.34;31214786;28;97182;-61
2023/10/07 15:30:55;;;;;;;3.50;1.90;;;;;;;17.53;66.46;99983.97;31214953;28;107802;-59
2023/10/07 15:45:55;;;;;;;4.22;1.80;;;;;;;17.24;67.63;100000.53;31213793;28;97633;-62
2023/10/07 16:01:00;;;;;;;5.75;2.13;;;;;;;16.98;69.11;100003.44;31212132;28;97153;-71
2023/10/07 16:16:06;;;;;;;6.90;2.00;;;;;;;16.75;69.93;100002.09;31207611;28;97385;-59
2023/10/07 16:31:07;;;;;;;5.43;2.27;;;;;;;16.47;71.69;99970.16;31207579;28;96921;-62
2023/10/07 16:46:09;;;;;;;5.90;2.00;;;;;;;16.45;72.19;99996.47;31189208;28;97454;-59
2023/10/07 17:01:10;;;;;;;4.10;2.00;;;;;;;16.50;72.42;99975.94;31203746;28;97041;-58
2023/10/07 17:16:18;;;;;;;3.97;2.00;;;;;;;16.58;72.48;99980.25;31210897;27;97555;-59
2023/10/07 17:31:19;;;;;;;9.20;2.30;;;;;;;16.64;72.46;99982.06;31227794;28;97085;-59
2023/10/07 17:46:19;;;;;;;5.45;2.08;;;;;;;16.67;72.42;99964.69;31224088;27;97512;-60
2023/10/07 18:01:19;;;;;;;5.53;2.40;;;;;;;16.71;72.47;99955.16;31222738;28;97245;-59
2023/10/07 18:16:20;;;;;;;8.95;2.63;;;;;;;16.79;72.24;99936.06;31221309;28;99770;-63
2023/10/07 18:31:20;;;;;;;4.80;2.58;;;;;;;16.95;71.56;99937.44;31217614;28;96674;-58
2023/10/07 18:46:21;;;;;;;5.45;2.67;;;;;;;17.15;70.99;99921.09;31217657;27;96929;-58
2023/10/07 19:01:22;;;;;;;5.97;2.70;;;;;;;17.28;70.05;99908.56;31217337;28;97377;-63
2023/10/07 19:16:22;;;;;;;9.57;3.33;;;;;;;17.38;69.60;99900.81;31216191;28;97392;-59
2023/10/07 19:31:23;;;;;;;4.95;2.15;;;;;;;17.49;68.69;99905.47;31214923;28;96636;-59
2023/10/07 19:46:23;;;;;;;4.85;2.40;;;;;;;17.55;68.01;99928.84;31211521;27;97490;-70
2023/10/07 20:01:23;;;;;;;7.18;2.70;;;;;;;17.18;68.44;99968.28;31212746;28;97161;-60
2023/10/07 20:16:24;;;;;;;3.70;1.50;;;;;;;16.64;69.48;99979.38;31212569;28;96995;-66
2023/10/07 20:31:24;;;;;;;0.70;0.60;;;;;;;16.07;70.57;99958.56;31210860;28;112191;-66
2023/10/07 20:46:25;;;;;;;1.63;0.40;;;;;;;15.54;71.10;99969.38;31209072;28;97406;-75
2023/10/07 21:01:25;;;;;;;0.75;0.40;;;;;;;15.18;72.26;99963.41;31207823;28;97423;-67
2023/10/07 21:16:25;;;;;;;0.82;0.55;;;;;;;14.93;72.86;99944.41;31206703;28;110840;-74
2023/10/07 21:31:29;;;;;;;0.63;0.43;;;;;;;14.81;73.08;99965.63;31207156;28;97453;-58
2023/10/07 21:46:29;;;;;;;0.73;0.40;;;;;;;14.73;73.93;99984.59;31204803;28;96838;-60
2023/10/07 22:01:30;;;;;;;1.08;0.65;;;;;;;14.60;74.54;99984.53;31208578;27;107469;-58
2023/10/07 22:16:30;;;;;;;0.98;0.70;;;;;;;14.55;74.71;99983.28;31225812;28;110971;-58
2023/10/07 22:31:31;;;;;;;1.35;0.40;;;;;;;14.22;74.96;99975.94;31224425;28;97432;-58
2023/10/07 22:46:31;;;;;;;1.05;0.30;;;;;;;13.40;74.44;100008.81;31221572;27;96770;-58
2023/10/07 23:01:41;;;;;;;1.10;0.50;;;;;;;12.78;75.18;100021.72;31219861;28;97069;-58
2023/10/07 23:16:41;;;;;;;0.50;0.30;;;;;;;12.26;75.61;100031.59;31218577;27;97533;-59
2023/10/07 23:31:43;;;;;;;0.20;0.20;;;;;;;11.97;75.26;100062.63;31218365;28;96823;-57
2023/10/07 23:46:44;;;;;;;0.73;0.30;;;;;;;11.71;76.36;100098.50;31216674;27;97746;-61
